Time;durP1;ratioP1;P1;durP2;ratioP2;P2;SDS_P1;SDS_P2;PMS_P1;PMS_P2;Temp;Humidity;BMP_temperature;BMP_pressure;BME280_temperature;BME280_humidity;BME280_pressure;Samples;Min_cycle;Max_cycle;Signal;HPM_P1;HPM_P2
2021/03/28 00:01:58;;;;;;;5.38;1.80;;;;;;;20.50;42.06;100596.25;5052797;28;20021;-81
2021/03/28 00:04:28;;;;;;;6.03;1.73;;;;;;;20.72;41.48;100599.19;5052683;28;20025;-82
2021/03/28 00:06:57;;;;;;;;;;;;;;;20.61;42.03;100596.31;5053455;28;20418;-82
2021/03/28 00:09:34;;;;;;;5.40;2.05;;;;;;;20.69;41.63;100594.38;5052610;28;20015;-83
2021/03/28 00:12:18;;;;;;;4.95;2.00;;;;;;;20.42;42.50;100591.78;5052576;28;20391;-82
2021/03/28 00:14:55;;;;;;;6.55;1.95;;;;;;;20.71;41.80;100592.03;5052494;28;20053;-82
2021/03/28 00:17:36;;;;;;;3.97;1.73;;;;;;;20.82;41.40;100586.56;5052840;28;20472;-81
2021/03/28 00:20:25;;;;;;;4.07;1.80;;;;;;;20.73;41.73;100579.34;5052583;28;20075;-82
2021/03/28 00:23:08;;;;;;;6.82;2.25;;;;;;;20.85;41.27;100581.00;5052386;28;20056;-82
2021/03/28 00:26:01;;;;;;;5.35;1.80;;;;;;;21.02;40.83;100572.00;5052540;28;20052;-83
2021/03/28 00:28:49;;;;;;;6.97;2.40;;;;;;;20.77;41.37;100576.59;5052548;28;20060;-81
2021/03/28 00:31:32;;;;;;;3.25;1.67;;;;;;;20.74;41.61;100580.16;5052577;28;20112;-82
2021/03/28 00:34:04;;;;;;;2.40;1.42;;;;;;;20.71;41.57;100573.41;5052484;28;20025;-82
2021/03/28 00:36:40;;;;;;;5.10;2.60;;;;;;;20.47;42.29;100566.47;5052349;28;20037;-81
2021/03/28 00:39:09;;;;;;;3.70;1.40;;;;;;;21.00;40.98;100563.25;5054786;28;20029;-81
2021/03/28 00:41:47;;;;;;;5.57;1.30;;;;;;;21.18;40.57;100560.59;5056333;28;20025;-80
2021/03/28 00:44:19;;;;;;;2.83;1.73;;;;;;;21.41;40.18;100565.09;5056391;28;20082;-81
2021/03/28 00:46:58;;;;;;;4.38;1.38;;;;;;;21.38;40.12;100560.28;5054901;28;20040;-81
2021/03/28 00:49:37;;;;;;;5.18;1.38;;;;;;;21.24;40.39;100542.38;5056305;28;20035;-81
2021/03/28 00:52:15;;;;;;;3.97;1.48;;;;;;;21.52;39.89;100557.56;5056115;28;20047;-76
2021/03/28 00:54:40;;;;;;;5.57;1.45;;;;;;;21.21;40.50;100550.66;5055951;28;20025;-79
2021/03/28 00:57:18;;;;;;;7.43;1.90;;;;;;;20.76;41.49;100550.00;5055915;28;20032;-76
2021/03/28 01:00:01;;;;;;;5.53;1.70;;;;;;;20.83;41.47;100544.50;5055926;28;20017;-76
2021/03/28 01:02:32;;;;;;;2.70;1.20;;;;;;;20.90;41.18;100550.13;5055891;28;20053;-77
2021/03/28 01:05:02;;;;;;;5.47;1.73;;;;;;;20.99;41.27;100553.34;5055777;28;20616;-76
2021/03/28 01:07:30;;;;;;;3.95;2.17;;;;;;;20.99;41.24;100544.22;5055795;28;20067;-77
2021/03/28 01:10:33;;;;;;;7.50;5.25;;;;;;;20.74;41.77;100538.50;5055698;28;20032;-78
2021/03/28 01:13:04;;;;;;;1.63;1.02;;;;;;;20.88;41.49;100533.03;5055523;28;20486;-81
2021/03/28 01:15:42;;;;;;;5.97;1.55;;;;;;;20.61;42.12;100534.44;5055590;28;20532;-77
2021/03/28 01:18:21;;;;;;;3.72;1.58;;;;;;;20.70;41.83;100529.34;5055593;28;20031;-81
2021/03/28 01:21:08;;;;;;;4.20;1.17;;;;;;;20.57;42.20;100530.88;5055582;28;20028;-78
2021/03/28 01:23:41;;;;;;;2.67;1.10;;;;;;;20.64;41.97;100525.38;5055519;28;20025;-81
2021/03/28 01:26:07;;;;;;;4.20;1.20;;;;;;;20.57;42.11;100531.66;5055525;28;20113;-78
2021/03/28 01:28:44;;;;;;;1.95;1.20;;;;;;;20.45;42.35;100521.66;5055495;28;20053;-78
2021/03/28 01:31:32;;;;;;;3.88;1.08;;;;;;;20.46;42.22;100514.91;5055381;28;20108;-78
2021/03/28 01:34:01;;;;;;;3.47;1.35;;;;;;;20.65;41.92;100516.66;5054040;28;20094;-78
2021/03/28 01:36:53;;;;;;;4.88;1.55;;;;;;;20.37;42.63;100508.88;5055169;28;20021;-78
2021/03/28 01:39:21;;;;;;;2.63;1.10;;;;;;;20.43;42.42;100499.00;5057919;28;20037;-81
2021/03/28 01:42:02;;;;;;;2.88;1.38;;;;;;;20.45;42.59;100504.19;5053889;28;20017;-79
2021/03/28 01:44:51;;;;;;;5.28;1.40;;;;;;;20.32;42.78;100487.03;5055058;28;20104;-77
2021/03/28 01:47:57;;;;;;;5.38;1.30;;;;;;;20.33;42.77;100485.88;5055100;28;20119;-78
2021/03/28 01:50:27;;;;;;;2.97;1.10;;;;;;;20.44;42.32;100497.84;5053085;28;20029;-77
2021/03/28 01:53:17;;;;;;;6.70;1.95;;;;;;;20.46;42.42;100498.25;5054968;28;20024;-77
2021/03/28 01:55:54;;;;;;;4.95;1.45;;;;;;;20.74;41.90;100511.53;5054921;28;20388;-77
2021/03/28 01:58:29;;;;;;;3.50;1.27;;;;;;;20.42;42.73;100502.97;5054890;28;20083;-79
2021/03/28 02:01:41;;;;;;;3.45;1.13;;;;;;;20.63;42.39;100496.00;5054800;28;20032;-81
2021/03/28 02:04:17;;;;;;;6.53;1.73;;;;;;;20.64;42.22;100487.28;5072329;28;20024;-78
2021/03/28 02:06:51;;;;;;;5.13;1.88;;;;;;;20.50;42.39;100488.00;5056122;28;20394;-77
2021/03/28 02:09:33;;;;;;;10.10;3.08;;;;;;;20.54;42.43;100495.53;5053278;28;20025;-77
2021/03/28 02:12:04;;;;;;;8.15;2.20;;;;;;;20.78;41.83;100504.03;5054634;28;20029;-77
2021/03/28 02:14:55;;;;;;;8.43;2.72;;;;;;;20.47;42.78;100501.84;5054206;28;20508;-77
2021/03/28 02:17:42;;;;;;;5.88;2.50;;;;;;;20.78;42.06;100509.59;5054531;28;20032;-77
2021/03/28 02:20:13;;;;;;;7.65;2.20;;;;;;;20.94;41.68;100506.50;5046983;28;20079;-78
2021/03/28 02:22:57;;;;;;;4.40;1.67;;;;;;;20.71;42.21;100492.09;5034400;28;20032;-78
2021/03/28 02:25:50;;;;;;;13.50;2.83;;;;;;;20.73;42.17;100501.63;5034551;28;20025;-78
2021/03/28 02:28:57;;;;;;;8.93;2.35;;;;;;;20.87;41.95;100498.13;5034479;28;20129;-78
2021/03/28 02:31:34;;;;;;;7.35;3.05;;;;;;;21.23;40.95;100492.72;5034356;28;20033;-75
2021/03/28 02:34:14;;;;;;;5.35;2.50;;;;;;;20.75;41.85;100499.25;5034137;28;20480;-75
2021/03/28 02:37:03;;;;;;;9.35;2.40;;;;;;;20.60;42.39;100496.78;5034170;28;20040;-75
2021/03/28 02:42:19;;;;;;;10.52;3.10;;;;;;;20.87;41.57;100512.03;5085307;23;20516;-77
2021/03/28 02:45:00;;;;;;;12.10;3.40;;;;;;;20.43;42.76;100495.44;4994491;28;20030;-77
2021/03/28 02:47:53;;;;;;;9.38;2.63;;;;;;;20.79;41.93;100510.38;4994630;28;20361;-78
2021/03/28 02:50:52;;;;;;;8.63;2.85;;;;;;;20.90;41.65;100516.78;4993654;28;20428;-78
2021/03/28 02:53:39;;;;;;;9.55;3.28;;;;;;;20.78;41.96;100508.78;4994415;28;20038;-77
2021/03/28 02:56:25;;;;;;;13.82;3.65;;;;;;;21.09;41.20;100506.56;4993640;28;20037;-77
2021/03/28 02:59:04;;;;;;;9.10;2.55;;;;;;;20.64;42.10;100503.16;4994103;28;20474;-77
2021/03/28 03:01:41;;;;;;;10.75;2.83;;;;;;;20.83;41.56;100500.09;4993231;28;20027;-77
2021/03/28 03:04:40;;;;;;;7.85;3.28;;;;;;;20.89;41.62;100514.41;4994221;28;20069;-77
2021/03/28 03:07:11;;;;;;;7.93;3.53;;;;;;;21.14;40.98;100517.28;4994132;28;20061;-77
2021/03/28 03:09:58;;;;;;;12.93;3.72;;;;;;;21.08;41.00;100524.41;4994038;28;20026;-77
2021/03/28 03:12:35;;;;;;;13.57;3.10;;;;;;;20.97;41.32;100525.16;4993981;28;20026;-78
2021/03/28 03:15:19;;;;;;;10.15;3.45;;;;;;;21.11;40.87;100540.31;4994066;28;20022;-77
2021/03/28 03:18:07;;;;;;;13.10;3.10;;;;;;;20.63;42.08;100523.75;4994288;28;20034;-77
2021/03/28 03:20:51;;;;;;;8.57;3.08;;;;;;;21.01;41.16;100525.19;4994022;28;20500;-77
2021/03/28 03:24:03;;;;;;;9.75;3.08;;;;;;;21.16;40.88;100531.59;4994174;28;20431;-78
2021/03/28 03:26:46;;;;;;;8.45;3.30;;;;;;;20.97;41.34;100541.81;4993899;28;20117;-77
2021/03/28 03:29:49;;;;;;;9.43;3.20;;;;;;;20.76;41.69;100539.72;4993906;28;20048;-79
2021/03/28 03:32:28;;;;;;;10.98;3.53;;;;;;;21.06;40.98;100545.03;4993731;28;20026;-75
2021/03/28 03:35:41;;;;;;;17.98;4.90;;;;;;;20.84;41.48;100557.22;4993803;28;20026;-77
2021/03/28 03:38:31;;;;;;;13.52;3.55;;;;;;;20.83;41.71;100550.06;4977006;28;20062;-78
2021/03/28 03:41:08;;;;;;;13.93;4.95;;;;;;;21.05;41.50;100551.78;4981364;28;20486;-79
2021/03/28 03:44:22;;;;;;;11.90;3.78;;;;;;;20.95;41.60;100563.63;4981789;28;20508;-77
2021/03/28 03:47:14;;;;;;;12.05;3.47;;;;;;;21.11;41.25;100574.44;4951212;28;20528;-78
2021/03/28 03:49:49;;;;;;;8.60;2.60;;;;;;;21.01;41.49;100569.63;4967164;28;20109;-78
2021/03/28 03:52:53;;;;;;;10.43;3.08;;;;;;;21.14;41.23;100575.63;4983771;28;20582;-80
2021/03/28 03:55:30;;;;;;;7.80;2.60;;;;;;;20.78;41.97;100554.03;4953849;28;20042;-78
2021/03/28 03:58:21;;;;;;;12.98;4.03;;;;;;;20.99;41.62;100564.44;4979950;28;20392;-78
2021/03/28 04:00:55;;;;;;;10.02;2.88;;;;;;;20.82;41.95;100576.25;4982407;28;20029;-77
2021/03/28 04:03:21;;;;;;;9.95;3.63;;;;;;;20.79;42.11;100579.81;4983648;28;20488;-78
2021/03/28 04:06:15;;;;;;;11.77;3.35;;;;;;;20.99;41.72;100585.88;4982796;28;20076;-78
2021/03/28 04:09:17;;;;;;;12.13;4.10;;;;;;;20.97;41.78;100588.25;4984779;28;20076;-79
2021/03/28 04:11:59;;;;;;;10.23;3.85;;;;;;;20.79;42.23;100588.13;4982312;28;20102;-79
2021/03/28 04:14:28;;;;;;;13.30;3.90;;;;;;;21.06;41.79;100603.38;4981939;28;20030;-79
2021/03/28 04:17:00;;;;;;;11.32;4.30;;;;;;;21.15;41.92;100616.13;4983455;28;20029;-80
2021/03/28 04:19:44;;;;;;;12.70;3.83;;;;;;;21.22;41.49;100611.41;4982554;28;20022;-81
2021/03/28 04:22:35;;;;;;;16.50;5.28;;;;;;;21.21;41.79;100614.56;4982928;28;20034;-79
2021/03/28 04:25:22;;;;;;;11.93;4.20;;;;;;;21.11;42.20;100621.66;4981435;28;20366;-77
2021/03/28 04:27:56;;;;;;;15.95;4.32;;;;;;;21.06;42.20;100625.59;4982844;28;20037;-80
2021/03/28 04:30:44;;;;;;;17.67;4.85;;;;;;;20.91;42.63;100623.91;4982943;28;20027;-77
2021/03/28 04:33:17;;;;;;;13.30;4.00;;;;;;;20.99;42.51;100628.31;4983393;28;20113;-79
2021/03/28 04:36:14;;;;;;;13.35;3.42;;;;;;;21.18;42.35;100626.47;4983294;28;20353;-78
2021/03/28 04:39:07;;;;;;;12.80;3.67;;;;;;;20.85;43.36;100628.22;4975143;28;20026;-78
2021/03/28 04:41:54;;;;;;;16.38;4.82;;;;;;;20.75;43.76;100640.84;4983172;28;20054;-81
2021/03/28 04:44:29;;;;;;;16.13;4.60;;;;;;;20.88;43.33;100648.88;4981733;28;20034;-79
2021/03/28 04:47:25;;;;;;;16.42;5.07;;;;;;;21.15;42.80;100655.00;4979882;28;20054;-79
2021/03/28 04:50:14;;;;;;;14.75;4.15;;;;;;;21.27;42.36;100649.16;4983239;28;20109;-79
2021/03/28 04:52:54;;;;;;;17.08;4.63;;;;;;;21.14;42.89;100642.31;4984326;28;20031;-79
2021/03/28 04:55:38;;;;;;;;;;;;;;;20.56;44.40;100643.06;4983447;28;20026;-79
2021/03/28 04:58:25;;;;;;;13.38;4.72;;;;;;;20.99;43.21;100645.00;4983036;28;19952;-79
2021/03/28 05:01:09;;;;;;;12.05;4.22;;;;;;;20.84;43.78;100657.19;4982898;28;20026;-78
2021/03/28 05:03:59;;;;;;;13.38;3.05;;;;;;;20.48;44.75;100645.78;4981735;28;20026;-76
2021/03/28 05:06:38;;;;;;;;;;;;;;;20.90;43.80;100658.41;4982773;28;20101;-77
2021/03/28 05:09:30;;;;;;;10.15;4.03;;;;;;;21.08;43.49;100654.97;4988331;28;20316;-80
2021/03/28 05:12:33;;;;;;;14.98;4.00;;;;;;;21.33;42.57;100655.97;4992501;28;20030;-80
2021/03/28 05:15:29;;;;;;;15.80;3.72;;;;;;;21.38;42.50;100646.44;4992403;28;20157;-78
2021/03/28 05:18:33;;;;;;;13.45;4.63;;;;;;;21.35;42.65;100652.81;4992636;28;20026;-78
2021/03/28 05:21:15;;;;;;;15.70;5.15;;;;;;;21.30;42.53;100656.72;4971676;28;20551;-79
2021/03/28 05:24:24;;;;;;;21.77;6.03;;;;;;;21.25;42.77;100651.53;4992616;28;20022;-80
2021/03/28 05:27:24;;;;;;;16.42;5.03;;;;;;;21.03;43.34;100648.59;4996091;28;20030;-80
2021/03/28 05:30:16;;;;;;;17.92;4.90;;;;;;;21.09;43.17;100648.25;4986928;28;20038;-80
2021/03/28 05:33:35;;;;;;;19.95;5.03;;;;;;;21.21;42.96;100664.59;4995946;28;20030;-79
2021/03/28 05:36:38;;;;;;;18.50;5.32;;;;;;;21.03;43.35;100640.28;4995924;28;20026;-78
2021/03/28 05:39:18;;;;;;;26.08;7.20;;;;;;;20.95;43.54;100658.06;4995597;28;20022;-79
2021/03/28 05:42:19;;;;;;;20.77;5.63;;;;;;;21.00;43.51;100662.44;4995401;28;20439;-79
2021/03/28 05:45:10;;;;;;;25.63;6.05;;;;;;;21.01;43.33;100667.66;4995718;28;20023;-79
2021/03/28 05:48:20;;;;;;;25.80;5.90;;;;;;;20.90;43.69;100668.72;4995756;28;20129;-78
2021/03/28 05:51:30;;;;;;;24.77;6.03;;;;;;;20.82;44.25;100669.84;4976444;28;20378;-79
2021/03/28 05:54:17;;;;;;;18.42;5.93;;;;;;;20.80;44.16;100686.91;4963650;28;20050;-81
2021/03/28 05:57:02;;;;;;;19.02;6.63;;;;;;;20.87;44.02;100695.31;4995125;28;20118;-79
2021/03/28 05:59:53;;;;;;;18.77;4.75;;;;;;;20.77;44.34;100696.00;4995359;28;20027;-78
2021/03/28 06:02:40;;;;;;;26.77;5.80;;;;;;;20.82;44.42;100700.41;4993976;28;20366;-80
2021/03/28 06:05:42;;;;;;;21.92;6.63;;;;;;;20.82;44.28;100709.53;4995483;28;20019;-80
2021/03/28 06:08:40;;;;;;;21.67;5.65;;;;;;;20.81;44.64;100712.69;4994018;28;20447;-80
2021/03/28 06:11:33;;;;;;;15.73;4.78;;;;;;;20.88;44.28;100718.31;4993316;28;20038;-78
2021/03/28 06:14:33;;;;;;;20.20;5.13;;;;;;;20.66;44.85;100720.09;4995281;28;20037;-79
2021/03/28 06:17:13;;;;;;;27.83;6.78;;;;;;;20.52;45.38;100717.16;4993852;28;20030;-79
2021/03/28 06:20:09;;;;;;;21.00;4.80;;;;;;;20.60;45.16;100718.84;4995135;28;20034;-80
2021/03/28 06:23:29;;;;;;;21.42;6.65;;;;;;;20.84;44.44;100732.16;4994606;28;20022;-79
2021/03/28 06:26:22;;;;;;;23.50;5.65;;;;;;;20.73;44.83;100743.16;4993759;28;20618;-79
2021/03/28 06:29:07;;;;;;;20.63;5.43;;;;;;;21.00;44.12;100741.03;4994705;28;20034;-80
2021/03/28 06:31:57;;;;;;;22.83;6.45;;;;;;;20.69;45.06;100752.63;4995019;28;20045;-79
2021/03/28 06:34:59;;;;;;;25.20;5.45;;;;;;;21.05;43.92;100735.13;4994940;28;20117;-77
2021/03/28 06:37:55;;;;;;;19.50;6.35;;;;;;;21.17;43.59;100744.34;4994547;28;20041;-79
2021/03/28 06:40:58;;;;;;;22.60;5.82;;;;;;;21.01;44.26;100752.97;4994617;28;20570;-79
2021/03/28 06:43:41;;;;;;;22.30;5.47;;;;;;;21.20;43.57;100740.78;4994681;28;20027;-80
2021/03/28 06:46:27;;;;;;;33.97;8.40;;;;;;;21.00;44.33;100754.91;4994736;28;20038;-80
2021/03/28 06:49:04;;;;;;;22.10;5.93;;;;;;;21.09;43.95;100746.28;4994529;28;20030;-79
2021/03/28 06:51:50;;;;;;;27.25;5.90;;;;;;;20.99;44.26;100753.31;4994855;28;20037;-80
2021/03/28 06:54:48;;;;;;;19.25;6.20;;;;;;;21.00;44.36;100752.13;4994527;28;20081;-80
2021/03/28 06:57:44;;;;;;;29.38;7.97;;;;;;;21.12;44.07;100753.03;4958923;28;20042;-80
2021/03/28 07:00:36;;;;;;;19.23;6.25;;;;;;;20.62;45.48;100745.03;4994455;28;20030;-80
2021/03/28 07:03:39;;;;;;;25.58;6.18;;;;;;;20.83;45.04;100750.00;4994347;28;20034;-79
2021/03/28 07:06:19;;;;;;;17.27;6.28;;;;;;;20.82;45.09;100753.97;4994293;28;20544;-79
2021/03/28 07:08:59;;;;;;;22.58;6.22;;;;;;;21.02;44.45;100758.13;4994250;28;20026;-80
2021/03/28 07:11:28;;;;;;;;;;;;;;;20.75;45.42;100760.25;4988434;28;20093;-77
2021/03/28 07:13:53;;;;;;;19.67;6.55;;;;;;;20.77;45.28;100768.19;4990229;28;19928;-78
2021/03/28 07:16:40;;;;;;;22.85;7.38;;;;;;;21.04;44.73;100766.88;4991771;28;20030;-75
2021/03/28 07:19:08;;;;;;;25.55;5.65;;;;;;;21.10;44.46;100761.75;4993783;28;20030;-79
2021/03/28 07:21:59;;;;;;;17.52;4.97;;;;;;;20.91;44.97;100773.88;4993859;28;20057;-80
2021/03/28 07:24:55;;;;;;;23.67;7.10;;;;;;;21.01;44.74;100775.19;4993218;28;20026;-77
2021/03/28 07:27:29;;;;;;;21.05;6.15;;;;;;;20.99;44.62;100786.66;4993782;28;20041;-76
2021/03/28 07:30:33;;;;;;;18.13;5.25;;;;;;;20.71;45.41;100792.75;4993663;28;20019;-80
2021/03/28 07:33:17;;;;;;;26.40;6.30;;;;;;;21.09;44.56;100792.72;4993573;28;20029;-79
2021/03/28 07:36:00;;;;;;;20.20;6.35;;;;;;;21.15;44.50;100799.47;4993212;28;20785;-78
2021/03/28 07:39:01;;;;;;;19.67;6.25;;;;;;;21.02;44.58;100802.56;4993884;28;20452;-81
2021/03/28 07:42:01;;;;;;;13.35;5.13;;;;;;;21.47;43.45;100797.81;4973189;28;20043;-79
2021/03/28 07:44:57;;;;;;;18.13;5.35;;;;;;;21.14;44.39;100814.56;4966341;28;20038;-80
2021/03/28 07:47:43;;;;;;;22.67;5.25;;;;;;;21.29;44.09;100822.66;4992329;28;20038;-79
2021/03/28 07:50:20;;;;;;;21.55;5.93;;;;;;;21.40;43.70;100810.88;4992268;28;20086;-76
2021/03/28 07:52:49;;;;;;;17.63;4.75;;;;;;;21.35;43.87;100809.22;4992459;28;20085;-78
2021/03/28 07:55:22;;;;;;;20.77;6.35;;;;;;;21.40;43.73;100819.19;4992030;28;20030;-81
2021/03/28 07:58:06;;;;;;;22.30;5.22;;;;;;;21.15;44.33;100825.28;4992448;28;20037;-76
2021/03/28 08:00:49;;;;;;;17.52;5.32;;;;;;;21.39;43.95;100826.75;4992570;28;20034;-79
2021/03/28 08:03:46;;;;;;;16.17;5.25;;;;;;;21.50;43.58;100830.41;4990901;28;20032;-81
2021/03/28 08:06:41;;;;;;;15.48;4.50;;;;;;;21.45;43.81;100827.97;4978255;28;20049;-79
2021/03/28 08:09:55;;;;;;;23.10;5.95;;;;;;;21.39;44.02;100840.66;4971986;28;20027;-80
2021/03/28 08:12:39;;;;;;;27.92;5.95;;;;;;;21.49;43.74;100847.47;4963700;28;20050;-82
2021/03/28 08:15:23;;;;;;;19.17;5.28;;;;;;;21.54;43.76;100845.13;4972846;28;20027;-80
2021/03/28 08:18:14;;;;;;;18.45;5.43;;;;;;;21.59;43.68;100847.53;4972944;28;20113;-81
2021/03/28 08:20:48;;;;;;;21.00;5.90;;;;;;;21.79;43.18;100852.88;4972808;28;20035;-76
2021/03/28 08:23:35;;;;;;;20.83;5.53;;;;;;;21.87;42.97;100835.03;4970938;28;20057;-80
2021/03/28 08:26:12;;;;;;;15.18;4.72;;;;;;;21.74;43.31;100842.09;4970918;28;20507;-81
2021/03/28 08:28:50;;;;;;;20.88;5.55;;;;;;;21.93;42.93;100838.25;4970784;28;20504;-81
2021/03/28 08:31:24;;;;;;;16.90;5.07;;;;;;;21.85;43.05;100841.00;4971066;28;20023;-77
2021/03/28 08:34:09;;;;;;;14.38;4.88;;;;;;;22.03;42.60;100846.66;4971573;28;20027;-76
2021/03/28 08:36:56;;;;;;;17.52;4.90;;;;;;;21.82;43.04;100846.50;4971681;28;20073;-77
2021/03/28 08:39:27;;;;;;;11.48;3.88;;;;;;;21.66;43.46;100846.00;4990334;28;20026;-79
2021/03/28 08:42:01;;;;;;;21.10;5.65;;;;;;;22.10;42.35;100855.09;4984596;28;20050;-82
2021/03/28 08:44:58;;;;;;;19.00;4.93;;;;;;;21.78;43.22;100845.72;4974771;28;20022;-83
2021/03/28 08:47:31;;;;;;;19.50;5.95;;;;;;;21.98;42.55;100862.91;4972475;28;20042;-77
2021/03/28 08:50:11;;;;;;;14.60;4.05;;;;;;;21.99;42.69;100853.38;4972289;28;20030;-78
2021/03/28 08:53:14;;;;;;;17.67;4.97;;;;;;;21.97;42.60;100853.78;4972130;28;20031;-81
2021/03/28 08:56:17;;;;;;;14.80;5.90;;;;;;;22.11;42.26;100859.47;4972311;28;20027;-78
2021/03/28 08:58:54;;;;;;;18.42;4.72;;;;;;;22.12;42.08;100866.59;4970701;28;20035;-79
2021/03/28 09:01:42;;;;;;;16.50;5.45;;;;;;;22.11;42.50;100865.03;4988405;28;20030;-78
2021/03/28 09:04:24;;;;;;;17.17;5.13;;;;;;;22.20;41.94;100875.81;4991703;28;20023;-77
2021/03/28 09:07:07;;;;;;;14.35;4.82;;;;;;;22.04;42.20;100878.84;4993530;28;20033;-82
2021/03/28 09:09:42;;;;;;;22.08;6.10;;;;;;;22.04;42.41;100873.28;5013153;28;20101;-77
2021/03/28 09:12:25;;;;;;;22.02;5.68;;;;;;;21.77;42.85;100883.06;5012659;28;20064;-77
2021/03/28 09:15:06;;;;;;;13.30;4.15;;;;;;;22.10;42.38;100873.75;5012861;28;20061;-83
2021/03/28 09:17:48;;;;;;;15.70;4.55;;;;;;;22.18;41.92;100885.72;5012944;28;20480;-80
2021/03/28 09:20:47;;;;;;;14.13;3.50;;;;;;;22.32;41.88;100878.25;5013316;28;20029;-83
2021/03/28 09:23:40;;;;;;;13.07;4.35;;;;;;;22.19;41.94;100879.78;5010757;28;20041;-77
2021/03/28 09:26:05;;;;;;;19.65;5.45;;;;;;;22.24;41.88;100889.75;5011172;28;20084;-82
2021/03/28 09:28:51;;;;;;;17.60;4.55;;;;;;;22.36;41.73;100873.50;5011072;28;20025;-84
2021/03/28 09:31:26;;;;;;;16.48;5.18;;;;;;;22.49;41.67;100887.09;5011118;28;20057;-78
2021/03/28 09:34:13;;;;;;;19.75;5.20;;;;;;;22.65;41.21;100882.00;5011156;28;20038;-80
2021/03/28 09:36:47;;;;;;;21.13;6.43;;;;;;;22.67;41.55;100893.53;5010624;28;20038;-82
2021/03/28 09:39:29;;;;;;;21.58;5.60;;;;;;;22.92;41.31;100885.31;5011671;28;20034;-78
2021/03/28 09:42:32;;;;;;;26.20;7.00;;;;;;;22.81;41.33;100884.44;5012564;28;20499;-83
2021/03/28 09:45:49;;;;;;;21.83;5.25;;;;;;;23.00;41.19;100886.91;5012526;28;20476;-82
2021/03/28 09:48:33;;;;;;;19.75;5.07;;;;;;;22.68;41.49;100886.78;4979025;28;20047;-82
2021/03/28 09:51:11;;;;;;;17.77;6.25;;;;;;;22.91;41.17;100906.81;5011716;28;20037;-84
2021/03/28 09:53:44;;;;;;;26.52;6.40;;;;;;;23.25;40.17;100901.69;5011094;28;20045;-78
2021/03/28 09:56:47;;;;;;;14.48;5.00;;;;;;;23.19;40.75;100906.06;5012349;28;20030;-80
2021/03/28 09:59:25;;;;;;;19.38;5.63;;;;;;;23.49;40.27;100897.34;5012336;28;20033;-79
2021/03/28 10:01:59;;;;;;;21.77;6.20;;;;;;;23.45;40.23;100904.91;5012497;28;20033;-79
2021/03/28 10:04:52;;;;;;;17.80;5.25;;;;;;;23.64;39.82;100906.53;5004520;28;20127;-77
2021/03/28 10:07:52;;;;;;;18.50;5.60;;;;;;;23.56;39.97;100898.53;4986829;28;20039;-76
2021/03/28 10:10:44;;;;;;;20.23;6.43;;;;;;;23.49;40.20;100904.91;4992748;28;20038;-76
2021/03/28 10:13:22;;;;;;;21.98;6.43;;;;;;;23.88;39.65;100898.56;4993308;28;20041;-78
2021/03/28 10:15:54;;;;;;;19.75;5.93;;;;;;;23.83;39.78;100904.56;4993312;28;20034;-79
2021/03/28 10:18:32;;;;;;;20.33;6.45;;;;;;;23.85;39.41;100891.00;4993216;28;20112;-79
2021/03/28 10:21:18;;;;;;;18.63;5.20;;;;;;;23.76;39.39;100891.41;4992403;28;20042;-81
2021/03/28 10:24:34;;;;;;;16.38;4.82;;;;;;;23.62;39.37;100883.84;4996223;28;20092;-78
2021/03/28 10:27:26;;;;;;;14.52;4.38;;;;;;;23.61;39.27;100889.81;4970450;28;20056;-76
2021/03/28 10:30:10;;;;;;;19.70;6.20;;;;;;;24.04;38.99;100901.75;4996536;28;20038;-76
2021/03/28 10:33:03;;;;;;;16.00;4.45;;;;;;;24.46;38.06;100900.09;4995764;28;20091;-76
2021/03/28 10:35:51;;;;;;;18.50;4.50;;;;;;;23.98;38.60;100893.00;4995999;28;20217;-76
2021/03/28 10:39:10;;;;;;;17.88;5.38;;;;;;;24.27;38.19;100885.34;4995622;28;20476;-76
2021/03/28 10:41:49;;;;;;;16.15;3.97;;;;;;;24.32;37.62;100890.53;4934769;29;20473;-81
2021/03/28 10:44:53;;;;;;;16.83;4.13;;;;;;;24.27;37.77;100887.34;4935111;29;20034;-76
2021/03/28 10:47:18;;;;;;;12.68;4.30;;;;;;;24.47;37.48;100887.69;4990926;28;20514;-75
2021/03/28 10:49:58;;;;;;;16.23;4.55;;;;;;;24.54;37.46;100898.84;4996399;28;20022;-76
2021/03/28 10:52:48;;;;;;;15.63;4.50;;;;;;;24.46;37.47;100878.53;4994376;28;20720;-76
2021/03/28 10:55:26;;;;;;;9.45;3.67;;;;;;;24.37;37.40;100874.59;4996209;28;20029;-76
2021/03/28 10:58:11;;;;;;;9.10;4.13;;;;;;;24.61;36.83;100880.06;4996411;28;20133;-75
2021/03/28 11:01:16;;;;;;;14.15;4.30;;;;;;;24.40;36.83;100879.34;4996001;28;20352;-75
2021/03/28 11:04:21;;;;;;;12.00;4.00;;;;;;;24.80;36.85;100878.78;4996185;28;20038;-77
2021/03/28 11:07:09;;;;;;;10.93;3.50;;;;;;;24.67;36.40;100874.88;4995692;28;20057;-76
2021/03/28 11:10:02;;;;;;;10.52;3.60;;;;;;;25.11;36.14;100877.06;4995903;28;20037;-78
2021/03/28 11:13:02;;;;;;;12.75;3.63;;;;;;;24.91;36.30;100870.34;4995347;28;20068;-76
2021/03/28 11:15:55;;;;;;;12.13;3.33;;;;;;;25.00;35.82;100864.31;4995035;28;20455;-76
2021/03/28 11:18:28;;;;;;;13.13;3.97;;;;;;;24.98;36.10;100864.72;4995204;28;20108;-77
2021/03/28 11:21:00;;;;;;;13.27;3.33;;;;;;;24.83;36.02;100849.22;4995001;28;20100;-76
2021/03/28 11:23:43;;;;;;;11.30;3.78;;;;;;;25.16;35.54;100864.63;4993657;28;20029;-76
2021/03/28 11:26:38;;;;;;;9.63;3.33;;;;;;;25.27;35.33;100865.34;4995562;28;20045;-75
2021/03/28 11:29:32;;;;;;;13.80;3.90;;;;;;;25.29;35.38;100859.34;4993703;28;20062;-76
2021/03/28 11:32:20;;;;;;;12.20;3.33;;;;;;;25.23;35.51;100856.19;4990752;28;20038;-79
2021/03/28 11:35:00;;;;;;;15.38;3.88;;;;;;;25.23;35.82;100847.78;4992505;28;20034;-79
2021/03/28 11:37:41;;;;;;;13.18;4.13;;;;;;;25.20;35.68;100851.44;4992530;28;20057;-76
2021/03/28 11:40:26;;;;;;;11.40;3.90;;;;;;;25.42;35.48;100855.66;4992257;28;20034;-75
2021/03/28 11:43:12;;;;;;;13.07;3.55;;;;;;;25.05;36.42;100847.13;4992219;28;20030;-79
2021/03/28 11:45:42;;;;;;;9.50;3.08;;;;;;;25.29;35.85;100840.56;4988032;28;20038;-79
2021/03/28 11:48:31;;;;;;;17.25;4.18;;;;;;;25.59;35.34;100830.72;4992190;28;20031;-79
2021/03/28 11:51:14;;;;;;;11.88;2.90;;;;;;;25.69;35.26;100835.44;4992462;28;20030;-78
2021/03/28 11:53:41;;;;;;;9.82;3.05;;;;;;;25.79;35.58;100837.38;4995367;28;20376;-78
2021/03/28 11:56:45;;;;;;;12.50;3.53;;;;;;;25.86;35.42;100822.53;4995777;28;20458;-79
2021/03/28 11:59:22;;;;;;;14.57;3.55;;;;;;;25.85;35.01;100829.34;4996243;28;20101;-75
2021/03/28 12:01:59;;;;;;;9.68;3.22;;;;;;;25.98;35.08;100819.97;4995502;28;20022;-76
2021/03/28 12:04:31;;;;;;;23.27;3.83;;;;;;;25.97;35.13;100821.19;4995638;28;20036;-76
2021/03/28 12:07:16;;;;;;;11.80;3.90;;;;;;;25.98;34.65;100819.97;4995673;28;20034;-78
2021/03/28 12:09:47;;;;;;;17.88;3.25;;;;;;;25.85;35.01;100812.53;4995252;28;20541;-81
2021/03/28 12:12:35;;;;;;;8.93;2.83;;;;;;;25.81;34.97;100803.38;4993395;28;20029;-80
2021/03/28 12:15:38;;;;;;;8.52;2.47;;;;;;;25.89;34.99;100779.69;4995222;28;20041;-81
2021/03/28 12:18:22;;;;;;;6.50;2.40;;;;;;;25.91;34.74;100792.03;4994133;28;20096;-82
2021/03/28 12:21:08;;;;;;;4.85;2.05;;;;;;;25.94;34.98;100780.03;4996090;28;20026;-80
2021/03/28 12:23:39;;;;;;;6.15;1.90;;;;;;;25.94;34.96;100784.84;4995611;28;20105;-80
2021/03/28 12:26:10;;;;;;;10.35;2.70;;;;;;;26.25;34.80;100777.28;4995740;28;20041;-79
2021/03/28 12:28:39;;;;;;;5.70;1.58;;;;;;;26.14;34.92;100788.59;4993908;28;20109;-79
2021/03/28 12:31:28;;;;;;;4.88;1.40;;;;;;;26.26;34.54;100773.25;4995123;28;20044;-77
2021/03/28 12:33:56;;;;;;;5.43;1.70;;;;;;;26.27;35.05;100780.44;4996252;28;20026;-77
2021/03/28 12:36:23;;;;;;;8.25;1.98;;;;;;;26.67;34.66;100764.69;5000189;28;20153;-80
2021/03/28 12:38:52;;;;;;;10.13;2.55;;;;;;;26.68;34.59;100759.91;5001166;28;20037;-77
2021/03/28 12:41:20;;;;;;;9.40;2.05;;;;;;;26.77;34.51;100754.56;4999352;28;20077;-78
2021/03/28 12:43:49;;;;;;;9.85;2.63;;;;;;;26.89;34.29;100758.78;4999356;28;20026;-80
2021/03/28 12:46:26;;;;;;;5.07;1.48;;;;;;;26.86;34.00;100743.59;5011653;28;20097;-81
2021/03/28 12:49:10;;;;;;;5.53;1.40;;;;;;;26.59;34.45;100738.00;5013976;28;20080;-81